Udon Thani, Thailand
Current Conditions -  °F | °C
As of 3:30 PM on Friday 19 Dec 2014 (Local Time) from VLVT Reporting Station
Few Clouds Few Clouds  
Wind Chill: 82°   Ceiling: Unl
Heat Index: 82°   Visibility: 6mi
Dew Point: 57°   Wind: 2mph
Humidity: 42%   Direction: 270°W
Pressure: 30"   Gusts: NA
Location:  17.41°N, 102.79°E
Report Text: VLVT 190830Z 27002KT 9999 FEW200 28/14 Q1016 NOSIG
Loading
Personal Weather Stations






























Interactive Weather Map New forecast layout! Learn more

10-Day Weather Forecast

Advertisements
Track Severe Weather on mobile